sensor_id;sensor_type;location;lat;lon;timestamp;temperature;humidity
15609;DHT22;28705;45.642;13.758;2022-07-22T00:00:55;30.20;45.20
15609;DHT22;28705;45.642;13.758;2022-07-22T00:03:23;30.20;45.90
15609;DHT22;28705;45.642;13.758;2022-07-22T00:05:50;30.20;46.00
15609;DHT22;28705;45.642;13.758;2022-07-22T00:08:18;30.10;46.10
15609;DHT22;28705;45.642;13.758;2022-07-22T00:10:45;30.10;46.70
15609;DHT22;28705;45.642;13.758;2022-07-22T00:13:12;30.10;47.10
15609;DHT22;28705;45.642;13.758;2022-07-22T00:15:39;30.20;48.10
15609;DHT22;28705;45.642;13.758;2022-07-22T00:18:06;30.10;48.60
15609;DHT22;28705;45.642;13.758;2022-07-22T00:20:33;30.10;49.40
15609;DHT22;28705;45.642;13.758;2022-07-22T00:23:00;30.00;50.10
15609;DHT22;28705;45.642;13.758;2022-07-22T00:25:29;29.90;50.50
15609;DHT22;28705;45.642;13.758;2022-07-22T00:27:56;29.90;50.90
15609;DHT22;28705;45.642;13.758;2022-07-22T00:30:23;29.80;51.10
15609;DHT22;28705;45.642;13.758;2022-07-22T00:32:50;29.80;51.30
15609;DHT22;28705;45.642;13.758;2022-07-22T00:35:17;29.80;50.80
15609;DHT22;28705;45.642;13.758;2022-07-22T00:37:44;29.80;50.50
15609;DHT22;28705;45.642;13.758;2022-07-22T00:40:11;29.80;50.20
15609;DHT22;28705;45.642;13.758;2022-07-22T00:42:40;29.80;50.10
15609;DHT22;28705;45.642;13.758;2022-07-22T00:45:08;29.70;49.90
15609;DHT22;28705;45.642;13.758;2022-07-22T00:47:35;29.70;50.70
15609;DHT22;28705;45.642;13.758;2022-07-22T00:50:03;29.70;51.40
15609;DHT22;28705;45.642;13.758;2022-07-22T00:52:31;29.60;52.10
15609;DHT22;28705;45.642;13.758;2022-07-22T00:54:59;29.50;52.30
15609;DHT22;28705;45.642;13.758;2022-07-22T00:57:26;29.50;52.70
15609;DHT22;28705;45.642;13.758;2022-07-22T00:59:55;29.50;52.50
15609;DHT22;28705;45.642;13.758;2022-07-22T01:02:22;29.50;52.00
15609;DHT22;28705;45.642;13.758;2022-07-22T01:04:49;29.50;51.40
15609;DHT22;28705;45.642;13.758;2022-07-22T01:07:17;29.50;49.70
15609;DHT22;28705;45.642;13.758;2022-07-22T01:09:44;29.40;48.40
15609;DHT22;28705;45.642;13.758;2022-07-22T01:12:12;29.40;47.80
15609;DHT22;28705;45.642;13.758;2022-07-22T01:14:39;29.30;46.90
15609;DHT22;28705;45.642;13.758;2022-07-22T01:17:08;29.40;46.40
15609;DHT22;28705;45.642;13.758;2022-07-22T01:19:36;29.20;46.40
15609;DHT22;28705;45.642;13.758;2022-07-22T01:22:04;29.20;46.00
15609;DHT22;28705;45.642;13.758;2022-07-22T01:24:31;29.20;46.10
15609;DHT22;28705;45.642;13.758;2022-07-22T01:26:58;29.20;46.80
15609;DHT22;28705;45.642;13.758;2022-07-22T01:29:26;29.20;46.60
15609;DHT22;28705;45.642;13.758;2022-07-22T01:31:53;29.20;47.00
15609;DHT22;28705;45.642;13.758;2022-07-22T01:34:20;29.20;47.20
15609;DHT22;28705;45.642;13.758;2022-07-22T01:36:47;29.20;47.40
15609;DHT22;28705;45.642;13.758;2022-07-22T01:39:15;29.20;47.80
15609;DHT22;28705;45.642;13.758;2022-07-22T01:41:43;29.20;48.10
15609;DHT22;28705;45.642;13.758;2022-07-22T01:44:10;29.20;48.70
15609;DHT22;28705;45.642;13.758;2022-07-22T01:46:37;29.10;48.90
15609;DHT22;28705;45.642;13.758;2022-07-22T01:49:04;29.10;49.10
15609;DHT22;28705;45.642;13.758;2022-07-22T01:51:31;29.10;49.40
15609;DHT22;28705;45.642;13.758;2022-07-22T01:53:58;29.00;49.60
15609;DHT22;28705;45.642;13.758;2022-07-22T01:56:26;29.00;49.90
15609;DHT22;28705;45.642;13.758;2022-07-22T01:58:53;29.00;50.30
15609;DHT22;28705;45.642;13.758;2022-07-22T02:01:21;29.00;50.50
15609;DHT22;28705;45.642;13.758;2022-07-22T02:03:48;29.00;50.60
15609;DHT22;28705;45.642;13.758;2022-07-22T02:06:15;29.00;50.50
15609;DHT22;28705;45.642;13.758;2022-07-22T02:08:42;29.00;50.60
15609;DHT22;28705;45.642;13.758;2022-07-22T02:11:09;29.00;50.30
15609;DHT22;28705;45.642;13.758;2022-07-22T02:13:37;28.90;50.10
15609;DHT22;28705;45.642;13.758;2022-07-22T02:16:04;28.90;50.00
15609;DHT22;28705;45.642;13.758;2022-07-22T02:18:31;28.90;50.00
15609;DHT22;28705;45.642;13.758;2022-07-22T02:20:58;28.80;50.00
15609;DHT22;28705;45.642;13.758;2022-07-22T02:23:25;28.80;50.00
15609;DHT22;28705;45.642;13.758;2022-07-22T02:25:52;28.80;50.00
15609;DHT22;28705;45.642;13.758;2022-07-22T02:28:19;28.80;49.90
15609;DHT22;28705;45.642;13.758;2022-07-22T02:30:48;28.80;49.80
15609;DHT22;28705;45.642;13.758;2022-07-22T02:33:15;28.80;49.80
15609;DHT22;28705;45.642;13.758;2022-07-22T02:35:42;28.90;49.60
15609;DHT22;28705;45.642;13.758;2022-07-22T02:38:09;28.90;49.50
15609;DHT22;28705;45.642;13.758;2022-07-22T02:40:36;28.90;49.50
15609;DHT22;28705;45.642;13.758;2022-07-22T02:43:03;28.90;49.30
15609;DHT22;28705;45.642;13.758;2022-07-22T02:45:31;28.90;49.40
15609;DHT22;28705;45.642;13.758;2022-07-22T02:48:00;28.80;49.30
15609;DHT22;28705;45.642;13.758;2022-07-22T02:50:27;28.80;48.80
15609;DHT22;28705;45.642;13.758;2022-07-22T02:52:54;28.80;48.50
15609;DHT22;28705;45.642;13.758;2022-07-22T02:55:21;28.80;47.30
15609;DHT22;28705;45.642;13.758;2022-07-22T02:57:48;28.80;46.60
15609;DHT22;28705;45.642;13.758;2022-07-22T03:00:15;28.80;46.40
15609;DHT22;28705;45.642;13.758;2022-07-22T03:02:42;28.80;45.80
15609;DHT22;28705;45.642;13.758;2022-07-22T03:05:11;28.80;45.60
15609;DHT22;28705;45.642;13.758;2022-07-22T03:07:38;28.80;45.80
15609;DHT22;28705;45.642;13.758;2022-07-22T03:10:06;28.70;46.00
15609;DHT22;28705;45.642;13.758;2022-07-22T03:12:34;28.70;46.00
15609;DHT22;28705;45.642;13.758;2022-07-22T03:15:01;28.80;45.90
15609;DHT22;28705;45.642;13.758;2022-07-22T03:17:28;28.70;46.00
15609;DHT22;28705;45.642;13.758;2022-07-22T03:19:55;28.70;46.20
15609;DHT22;28705;45.642;13.758;2022-07-22T03:22:23;28.80;46.50
15609;DHT22;28705;45.642;13.758;2022-07-22T03:24:50;28.90;45.90
15609;DHT22;28705;45.642;13.758;2022-07-22T03:27:17;28.90;45.10
15609;DHT22;28705;45.642;13.758;2022-07-22T03:29:44;28.90;44.80
15609;DHT22;28705;45.642;13.758;2022-07-22T03:32:11;28.90;45.10
15609;DHT22;28705;45.642;13.758;2022-07-22T03:34:37;28.90;45.30
15609;DHT22;28705;45.642;13.758;2022-07-22T03:37:04;28.80;45.50
15609;DHT22;28705;45.642;13.758;2022-07-22T03:39:33;28.80;46.00
15609;DHT22;28705;45.642;13.758;2022-07-22T03:42:00;28.80;46.60
15609;DHT22;28705;45.642;13.758;2022-07-22T03:44:27;28.80;46.90
15609;DHT22;28705;45.642;13.758;2022-07-22T03:46:54;28.80;47.20
15609;DHT22;28705;45.642;13.758;2022-07-22T03:49:21;28.80;47.40
15609;DHT22;28705;45.642;13.758;2022-07-22T03:51:48;28.80;47.50
15609;DHT22;28705;45.642;13.758;2022-07-22T03:54:15;28.80;47.50
15609;DHT22;28705;45.642;13.758;2022-07-22T03:56:43;28.90;47.60
15609;DHT22;28705;45.642;13.758;2022-07-22T03:59:10;28.90;47.70
15609;DHT22;28705;45.642;13.758;2022-07-22T04:01:37;28.90;47.80
15609;DHT22;28705;45.642;13.758;2022-07-22T04:04:04;28.80;48.00
15609;DHT22;28705;45.642;13.758;2022-07-22T04:06:31;28.80;48.30
15609;DHT22;28705;45.642;13.758;2022-07-22T04:08:58;28.80;48.40
15609;DHT22;28705;45.642;13.758;2022-07-22T04:11:25;28.80;48.60
15609;DHT22;28705;45.642;13.758;2022-07-22T04:13:54;28.70;48.70
15609;DHT22;28705;45.642;13.758;2022-07-22T04:16:21;28.80;48.80
15609;DHT22;28705;45.642;13.758;2022-07-22T04:18:48;28.80;48.70
15609;DHT22;28705;45.642;13.758;2022-07-22T04:21:15;28.80;48.70
15609;DHT22;28705;45.642;13.758;2022-07-22T04:23:42;28.90;48.70
15609;DHT22;28705;45.642;13.758;2022-07-22T04:26:09;28.90;48.60
15609;DHT22;28705;45.642;13.758;2022-07-22T04:28:36;29.00;48.60
15609;DHT22;28705;45.642;13.758;2022-07-22T04:31:05;29.10;48.50
15609;DHT22;28705;45.642;13.758;2022-07-22T04:33:32;29.10;48.20
15609;DHT22;28705;45.642;13.758;2022-07-22T04:35:59;29.00;48.20
15609;DHT22;28705;45.642;13.758;2022-07-22T04:38:26;29.00;48.40
15609;DHT22;28705;45.642;13.758;2022-07-22T04:40:54;29.10;48.30
15609;DHT22;28705;45.642;13.758;2022-07-22T04:43:21;29.10;48.20
15609;DHT22;28705;45.642;13.758;2022-07-22T04:45:48;29.10;48.10
15609;DHT22;28705;45.642;13.758;2022-07-22T04:48:16;29.00;47.90
15609;DHT22;28705;45.642;13.758;2022-07-22T04:50:43;29.00;47.60
15609;DHT22;28705;45.642;13.758;2022-07-22T04:53:10;29.00;47.50
15609;DHT22;28705;45.642;13.758;2022-07-22T04:55:37;29.00;47.90
15609;DHT22;28705;45.642;13.758;2022-07-22T04:58:04;29.00;48.30
15609;DHT22;28705;45.642;13.758;2022-07-22T05:00:31;29.00;48.70
15609;DHT22;28705;45.642;13.758;2022-07-22T05:02:58;29.00;48.90
15609;DHT22;28705;45.642;13.758;2022-07-22T05:05:27;28.90;48.90
15609;DHT22;28705;45.642;13.758;2022-07-22T05:07:54;28.90;49.10
15609;DHT22;28705;45.642;13.758;2022-07-22T05:10:21;29.00;49.10
15609;DHT22;28705;45.642;13.758;2022-07-22T05:12:48;29.00;49.20
15609;DHT22;28705;45.642;13.758;2022-07-22T05:15:15;29.00;49.60
15609;DHT22;28705;45.642;13.758;2022-07-22T05:17:42;29.10;50.00
15609;DHT22;28705;45.642;13.758;2022-07-22T05:20:10;29.00;49.80
15609;DHT22;28705;45.642;13.758;2022-07-22T05:22:38;29.10;50.00
15609;DHT22;28705;45.642;13.758;2022-07-22T05:25:06;29.10;50.00
15609;DHT22;28705;45.642;13.758;2022-07-22T05:27:33;29.10;50.00
15609;DHT22;28705;45.642;13.758;2022-07-22T05:30:00;29.10;49.90
15609;DHT22;28705;45.642;13.758;2022-07-22T05:32:27;29.00;50.00
15609;DHT22;28705;45.642;13.758;2022-07-22T05:34:54;29.10;50.30
15609;DHT22;28705;45.642;13.758;2022-07-22T05:37:21;29.10;49.90
15609;DHT22;28705;45.642;13.758;2022-07-22T05:39:49;29.20;49.70
15609;DHT22;28705;45.642;13.758;2022-07-22T05:42:17;29.30;49.70
15609;DHT22;28705;45.642;13.758;2022-07-22T05:44:44;29.30;49.60
15609;DHT22;28705;45.642;13.758;2022-07-22T05:47:11;29.30;49.60
15609;DHT22;28705;45.642;13.758;2022-07-22T05:49:38;29.30;49.80
15609;DHT22;28705;45.642;13.758;2022-07-22T05:52:05;29.30;49.70
15609;DHT22;28705;45.642;13.758;2022-07-22T05:54:32;29.30;49.30
15609;DHT22;28705;45.642;13.758;2022-07-22T05:57:01;29.40;49.20
15609;DHT22;28705;45.642;13.758;2022-07-22T05:59:28;29.40;49.30
15609;DHT22;28705;45.642;13.758;2022-07-22T06:01:55;29.40;49.30
15609;DHT22;28705;45.642;13.758;2022-07-22T06:04:22;29.40;49.30
15609;DHT22;28705;45.642;13.758;2022-07-22T06:06:48;29.40;49.10
15609;DHT22;28705;45.642;13.758;2022-07-22T06:09:15;29.50;49.20
15609;DHT22;28705;45.642;13.758;2022-07-22T06:11:42;29.40;49.10
15609;DHT22;28705;45.642;13.758;2022-07-22T06:14:11;29.50;49.20
15609;DHT22;28705;45.642;13.758;2022-07-22T06:16:38;29.50;49.10
15609;DHT22;28705;45.642;13.758;2022-07-22T06:19:05;29.50;49.10
15609;DHT22;28705;45.642;13.758;2022-07-22T06:21:32;29.50;49.10
15609;DHT22;28705;45.642;13.758;2022-07-22T06:23:59;29.60;49.20
15609;DHT22;28705;45.642;13.758;2022-07-22T06:26:26;29.60;49.20
15609;DHT22;28705;45.642;13.758;2022-07-22T06:28:53;29.60;49.10
15609;DHT22;28705;45.642;13.758;2022-07-22T06:31:21;29.60;49.10
15609;DHT22;28705;45.642;13.758;2022-07-22T06:33:48;29.60;49.10
15609;DHT22;28705;45.642;13.758;2022-07-22T06:36:15;29.60;49.20
15609;DHT22;28705;45.642;13.758;2022-07-22T06:38:43;29.60;49.20
15609;DHT22;28705;45.642;13.758;2022-07-22T06:41:10;29.60;49.20
15609;DHT22;28705;45.642;13.758;2022-07-22T06:43:39;29.60;49.20
15609;DHT22;28705;45.642;13.758;2022-07-22T06:46:06;29.70;49.20
15609;DHT22;28705;45.642;13.758;2022-07-22T06:48:34;29.60;49.10
15609;DHT22;28705;45.642;13.758;2022-07-22T06:51:01;29.70;49.20
15609;DHT22;28705;45.642;13.758;2022-07-22T06:53:28;29.60;49.10
15609;DHT22;28705;45.642;13.758;2022-07-22T06:55:55;29.70;49.10
15609;DHT22;28705;45.642;13.758;2022-07-22T06:58:22;29.70;49.10
15609;DHT22;28705;45.642;13.758;2022-07-22T07:00:49;29.70;49.20
15609;DHT22;28705;45.642;13.758;2022-07-22T07:03:16;29.70;49.10
15609;DHT22;28705;45.642;13.758;2022-07-22T07:05:45;29.70;49.20
15609;DHT22;28705;45.642;13.758;2022-07-22T07:08:11;29.70;49.20
15609;DHT22;28705;45.642;13.758;2022-07-22T07:10:38;29.70;49.20
15609;DHT22;28705;45.642;13.758;2022-07-22T07:13:05;29.80;49.20
15609;DHT22;28705;45.642;13.758;2022-07-22T07:15:32;29.70;49.20
15609;DHT22;28705;45.642;13.758;2022-07-22T07:17:59;29.80;49.30
15609;DHT22;28705;45.642;13.758;2022-07-22T07:20:26;29.80;49.80
15609;DHT22;28705;45.642;13.758;2022-07-22T07:22:55;29.80;49.30
15609;DHT22;28705;45.642;13.758;2022-07-22T07:25:22;29.80;49.60
15609;DHT22;28705;45.642;13.758;2022-07-22T07:27:49;29.80;49.90
15609;DHT22;28705;45.642;13.758;2022-07-22T07:30:16;29.80;49.80
15609;DHT22;28705;45.642;13.758;2022-07-22T07:32:43;29.90;53.00
15609;DHT22;28705;45.642;13.758;2022-07-22T07:35:10;29.90;54.30
15609;DHT22;28705;45.642;13.758;2022-07-22T07:37:38;29.90;55.30
15609;DHT22;28705;45.642;13.758;2022-07-22T07:40:07;30.00;55.90
15609;DHT22;28705;45.642;13.758;2022-07-22T07:42:34;30.00;56.30
15609;DHT22;28705;45.642;13.758;2022-07-22T07:45:01;30.10;53.30
15609;DHT22;28705;45.642;13.758;2022-07-22T07:47:29;30.10;51.40
15609;DHT22;28705;45.642;13.758;2022-07-22T07:49:56;30.20;51.80
15609;DHT22;28705;45.642;13.758;2022-07-22T07:52:26;30.20;52.20
15609;DHT22;28705;45.642;13.758;2022-07-22T07:54:53;30.20;52.50
15609;DHT22;28705;45.642;13.758;2022-07-22T07:57:22;30.20;51.90
15609;DHT22;28705;45.642;13.758;2022-07-22T07:59:49;30.20;53.10
15609;DHT22;28705;45.642;13.758;2022-07-22T08:02:16;30.30;54.40
15609;DHT22;28705;45.642;13.758;2022-07-22T08:04:43;30.20;55.00
15609;DHT22;28705;45.642;13.758;2022-07-22T08:07:10;30.20;54.70
15609;DHT22;28705;45.642;13.758;2022-07-22T08:09:37;30.20;55.10
15609;DHT22;28705;45.642;13.758;2022-07-22T08:12:05;30.20;55.10
15609;DHT22;28705;45.642;13.758;2022-07-22T08:14:34;30.20;55.40
15609;DHT22;28705;45.642;13.758;2022-07-22T08:17:01;30.10;55.60
15609;DHT22;28705;45.642;13.758;2022-07-22T08:19:28;30.10;55.40
15609;DHT22;28705;45.642;13.758;2022-07-22T08:21:55;30.10;55.10
15609;DHT22;28705;45.642;13.758;2022-07-22T08:24:22;30.10;55.70
15609;DHT22;28705;45.642;13.758;2022-07-22T08:26:50;30.10;55.30
15609;DHT22;28705;45.642;13.758;2022-07-22T08:29:17;30.10;55.50
15609;DHT22;28705;45.642;13.758;2022-07-22T08:31:45;30.10;56.00
15609;DHT22;28705;45.642;13.758;2022-07-22T08:34:12;30.10;56.50
15609;DHT22;28705;45.642;13.758;2022-07-22T08:36:39;30.10;56.30
15609;DHT22;28705;45.642;13.758;2022-07-22T08:39:06;30.00;56.10
15609;DHT22;28705;45.642;13.758;2022-07-22T08:41:36;30.00;56.30
15609;DHT22;28705;45.642;13.758;2022-07-22T08:44:05;30.00;56.60
15609;DHT22;28705;45.642;13.758;2022-07-22T08:46:32;30.00;56.50
15609;DHT22;28705;45.642;13.758;2022-07-22T08:49:01;30.00;56.40
15609;DHT22;28705;45.642;13.758;2022-07-22T08:51:28;30.00;56.10
15609;DHT22;28705;45.642;13.758;2022-07-22T08:53:55;29.90;56.10
15609;DHT22;28705;45.642;13.758;2022-07-22T08:56:22;29.90;55.60
15609;DHT22;28705;45.642;13.758;2022-07-22T08:58:49;29.90;55.60
15609;DHT22;28705;45.642;13.758;2022-07-22T09:01:17;29.90;55.50
15609;DHT22;28705;45.642;13.758;2022-07-22T09:03:46;29.90;55.30
15609;DHT22;28705;45.642;13.758;2022-07-22T09:06:16;29.90;55.40
15609;DHT22;28705;45.642;13.758;2022-07-22T09:08:51;29.90;55.30
15609;DHT22;28705;45.642;13.758;2022-07-22T09:11:20;30.00;55.00
15609;DHT22;28705;45.642;13.758;2022-07-22T09:13:48;30.00;54.80
15609;DHT22;28705;45.642;13.758;2022-07-22T09:16:15;30.00;54.70
15609;DHT22;28705;45.642;13.758;2022-07-22T09:18:47;30.00;55.40
15609;DHT22;28705;45.642;13.758;2022-07-22T09:21:15;30.00;54.70
15609;DHT22;28705;45.642;13.758;2022-07-22T09:23:43;30.10;54.50
15609;DHT22;28705;45.642;13.758;2022-07-22T09:26:29;30.00;54.30
15609;DHT22;28705;45.642;13.758;2022-07-22T09:28:57;30.00;54.50
15609;DHT22;28705;45.642;13.758;2022-07-22T09:31:25;30.00;54.50
15609;DHT22;28705;45.642;13.758;2022-07-22T09:33:52;30.10;54.60
15609;DHT22;28705;45.642;13.758;2022-07-22T09:36:21;30.10;55.20
15609;DHT22;28705;45.642;13.758;2022-07-22T09:38:48;30.10;55.20
15609;DHT22;28705;45.642;13.758;2022-07-22T09:41:16;30.10;55.10
15609;DHT22;28705;45.642;13.758;2022-07-22T09:43:43;30.10;55.40
15609;DHT22;28705;45.642;13.758;2022-07-22T09:46:10;30.10;55.10
15609;DHT22;28705;45.642;13.758;2022-07-22T09:48:39;30.10;54.70
15609;DHT22;28705;45.642;13.758;2022-07-22T09:51:06;30.10;53.90
15609;DHT22;28705;45.642;13.758;2022-07-22T09:53:35;30.10;54.00
15609;DHT22;28705;45.642;13.758;2022-07-22T09:56:05;30.10;54.00
15609;DHT22;28705;45.642;13.758;2022-07-22T09:58:34;30.20;53.90
15609;DHT22;28705;45.642;13.758;2022-07-22T10:01:04;30.10;53.20
15609;DHT22;28705;45.642;13.758;2022-07-22T10:03:33;30.20;53.00
15609;DHT22;28705;45.642;13.758;2022-07-22T10:06:03;30.20;52.90
15609;DHT22;28705;45.642;13.758;2022-07-22T10:08:33;30.20;53.00
15609;DHT22;28705;45.642;13.758;2022-07-22T10:11:03;30.20;53.20
15609;DHT22;28705;45.642;13.758;2022-07-22T10:13:31;30.10;53.30
15609;DHT22;28705;45.642;13.758;2022-07-22T10:16:00;30.20;53.30
15609;DHT22;28705;45.642;13.758;2022-07-22T10:18:28;30.20;53.50
15609;DHT22;28705;45.642;13.758;2022-07-22T10:21:04;30.20;53.50
15609;DHT22;28705;45.642;13.758;2022-07-22T10:23:32;30.30;53.60
15609;DHT22;28705;45.642;13.758;2022-07-22T10:26:02;30.20;53.50
15609;DHT22;28705;45.642;13.758;2022-07-22T10:28:31;30.20;53.50
15609;DHT22;28705;45.642;13.758;2022-07-22T10:31:17;30.20;53.50
15609;DHT22;28705;45.642;13.758;2022-07-22T10:33:49;30.20;53.40
15609;DHT22;28705;45.642;13.758;2022-07-22T10:36:30;30.20;53.40
15609;DHT22;28705;45.642;13.758;2022-07-22T10:39:06;30.20;53.30
15609;DHT22;28705;45.642;13.758;2022-07-22T10:41:36;30.20;53.30
15609;DHT22;28705;45.642;13.758;2022-07-22T10:44:03;30.20;53.20
15609;DHT22;28705;45.642;13.758;2022-07-22T10:46:50;30.20;53.30
15609;DHT22;28705;45.642;13.758;2022-07-22T10:49:19;30.20;53.10
15609;DHT22;28705;45.642;13.758;2022-07-22T10:52:09;30.20;53.00
15609;DHT22;28705;45.642;13.758;2022-07-22T10:57:38;30.20;52.90
15609;DHT22;28705;45.642;13.758;2022-07-22T11:00:06;30.20;52.80
15609;DHT22;28705;45.642;13.758;2022-07-22T11:02:34;30.20;52.80
15609;DHT22;28705;45.642;13.758;2022-07-22T11:05:04;30.20;52.80
15609;DHT22;28705;45.642;13.758;2022-07-22T11:07:31;30.20;52.60
15609;DHT22;28705;45.642;13.758;2022-07-22T11:10:08;30.20;52.60
15609;DHT22;28705;45.642;13.758;2022-07-22T11:12:37;30.20;52.60
15609;DHT22;28705;45.642;13.758;2022-07-22T11:15:06;30.20;52.50
15609;DHT22;28705;45.642;13.758;2022-07-22T11:17:33;30.20;52.40
15609;DHT22;28705;45.642;13.758;2022-07-22T11:20:01;30.20;52.40
15609;DHT22;28705;45.642;13.758;2022-07-22T11:22:29;30.20;53.00
15609;DHT22;28705;45.642;13.758;2022-07-22T11:24:57;30.20;52.30
15609;DHT22;28705;45.642;13.758;2022-07-22T11:27:26;30.20;52.20
15609;DHT22;28705;45.642;13.758;2022-07-22T11:29:55;30.30;52.20
15609;DHT22;28705;45.642;13.758;2022-07-22T11:32:23;30.20;52.00
15609;DHT22;28705;45.642;13.758;2022-07-22T11:34:51;30.20;52.00
15609;DHT22;28705;45.642;13.758;2022-07-22T11:37:19;30.20;52.00
15609;DHT22;28705;45.642;13.758;2022-07-22T11:39:48;30.30;52.00
15609;DHT22;28705;45.642;13.758;2022-07-22T11:42:15;30.30;51.90
15609;DHT22;28705;45.642;13.758;2022-07-22T11:44:42;30.30;51.90
15609;DHT22;28705;45.642;13.758;2022-07-22T11:47:11;30.20;51.80
15609;DHT22;28705;45.642;13.758;2022-07-22T11:49:38;30.30;51.90
15609;DHT22;28705;45.642;13.758;2022-07-22T11:52:07;30.30;51.80
15609;DHT22;28705;45.642;13.758;2022-07-22T11:54:37;30.30;51.80
15609;DHT22;28705;45.642;13.758;2022-07-22T11:57:04;30.30;51.70
15609;DHT22;28705;45.642;13.758;2022-07-22T11:59:33;30.30;51.70
15609;DHT22;28705;45.642;13.758;2022-07-22T12:02:00;30.30;51.60
15609;DHT22;28705;45.642;13.758;2022-07-22T12:04:29;30.30;51.60
15609;DHT22;28705;45.642;13.758;2022-07-22T12:06:59;30.30;51.50
15609;DHT22;28705;45.642;13.758;2022-07-22T12:09:30;30.30;51.50
15609;DHT22;28705;45.642;13.758;2022-07-22T12:11:58;30.30;51.50
15609;DHT22;28705;45.642;13.758;2022-07-22T12:14:26;30.30;51.40
15609;DHT22;28705;45.642;13.758;2022-07-22T12:16:55;30.30;51.30
15609;DHT22;28705;45.642;13.758;2022-07-22T12:19:23;30.30;51.40
15609;DHT22;28705;45.642;13.758;2022-07-22T12:21:53;30.30;51.30
15609;DHT22;28705;45.642;13.758;2022-07-22T12:24:29;30.30;51.20
15609;DHT22;28705;45.642;13.758;2022-07-22T12:26:59;30.30;51.20
15609;DHT22;28705;45.642;13.758;2022-07-22T12:29:28;30.30;51.20
15609;DHT22;28705;45.642;13.758;2022-07-22T12:31:57;30.30;51.10
15609;DHT22;28705;45.642;13.758;2022-07-22T12:34:33;30.30;51.10
15609;DHT22;28705;45.642;13.758;2022-07-22T12:37:12;30.30;51.00
15609;DHT22;28705;45.642;13.758;2022-07-22T12:39:39;30.30;51.00
15609;DHT22;28705;45.642;13.758;2022-07-22T12:42:16;30.30;50.90
15609;DHT22;28705;45.642;13.758;2022-07-22T12:44:50;30.30;50.80
15609;DHT22;28705;45.642;13.758;2022-07-22T12:47:17;30.30;50.80
15609;DHT22;28705;45.642;13.758;2022-07-22T12:50:22;30.30;50.70
15609;DHT22;28705;45.642;13.758;2022-07-22T12:52:52;30.30;50.60
15609;DHT22;28705;45.642;13.758;2022-07-22T12:55:20;30.30;50.60
15609;DHT22;28705;45.642;13.758;2022-07-22T12:57:47;30.30;50.60
15609;DHT22;28705;45.642;13.758;2022-07-22T13:00:18;30.40;50.60
15609;DHT22;28705;45.642;13.758;2022-07-22T13:02:46;30.30;50.50
15609;DHT22;28705;45.642;13.758;2022-07-22T13:05:13;30.40;50.50
15609;DHT22;28705;45.642;13.758;2022-07-22T13:07:40;30.20;50.30
15609;DHT22;28705;45.642;13.758;2022-07-22T13:10:10;30.30;50.90
15609;DHT22;28705;45.642;13.758;2022-07-22T13:12:37;30.40;50.40
15609;DHT22;28705;45.642;13.758;2022-07-22T13:15:05;30.30;50.20
15609;DHT22;28705;45.642;13.758;2022-07-22T13:17:33;30.40;50.20
15609;DHT22;28705;45.642;13.758;2022-07-22T13:20:01;30.40;50.10
15609;DHT22;28705;45.642;13.758;2022-07-22T13:22:28;30.30;50.00
15609;DHT22;28705;45.642;13.758;2022-07-22T13:24:55;30.40;50.10
15609;DHT22;28705;45.642;13.758;2022-07-22T13:27:24;30.40;50.00
15609;DHT22;28705;45.642;13.758;2022-07-22T13:29:51;30.30;49.90
15609;DHT22;28705;45.642;13.758;2022-07-22T13:32:18;30.40;50.20
15609;DHT22;28705;45.642;13.758;2022-07-22T13:34:45;30.30;49.80
15609;DHT22;28705;45.642;13.758;2022-07-22T13:37:12;30.30;49.70
15609;DHT22;28705;45.642;13.758;2022-07-22T13:39:39;30.40;49.80
15609;DHT22;28705;45.642;13.758;2022-07-22T13:42:08;30.40;49.70
15609;DHT22;28705;45.642;13.758;2022-07-22T13:44:36;30.40;49.70
15609;DHT22;28705;45.642;13.758;2022-07-22T13:47:03;30.40;49.60
15609;DHT22;28705;45.642;13.758;2022-07-22T13:49:30;30.40;49.50
15609;DHT22;28705;45.642;13.758;2022-07-22T13:51:57;30.40;49.50
15609;DHT22;28705;45.642;13.758;2022-07-22T13:54:24;30.40;49.50
15609;DHT22;28705;45.642;13.758;2022-07-22T13:56:51;30.40;49.40
15609;DHT22;28705;45.642;13.758;2022-07-22T13:59:18;30.40;49.40
15609;DHT22;28705;45.642;13.758;2022-07-22T14:01:46;30.40;49.30
15609;DHT22;28705;45.642;13.758;2022-07-22T14:04:15;30.40;49.30
15609;DHT22;28705;45.642;13.758;2022-07-22T14:06:42;30.40;49.20
15609;DHT22;28705;45.642;13.758;2022-07-22T14:09:09;30.40;49.20
15609;DHT22;28705;45.642;13.758;2022-07-22T14:11:36;30.40;49.10
15609;DHT22;28705;45.642;13.758;2022-07-22T14:14:03;30.40;49.10
15609;DHT22;28705;45.642;13.758;2022-07-22T14:16:31;30.40;49.10
15609;DHT22;28705;45.642;13.758;2022-07-22T14:19:04;30.40;49.00
15609;DHT22;28705;45.642;13.758;2022-07-22T14:21:31;30.40;49.00
15609;DHT22;28705;45.642;13.758;2022-07-22T14:23:58;30.40;49.00
15609;DHT22;28705;45.642;13.758;2022-07-22T14:26:26;30.40;48.90
15609;DHT22;28705;45.642;13.758;2022-07-22T14:28:53;30.40;48.90
15609;DHT22;28705;45.642;13.758;2022-07-22T14:31:20;30.40;48.90
15609;DHT22;28705;45.642;13.758;2022-07-22T14:33:47;30.40;48.90
15609;DHT22;28705;45.642;13.758;2022-07-22T14:36:16;30.40;48.80
15609;DHT22;28705;45.642;13.758;2022-07-22T14:38:43;30.40;48.80
15609;DHT22;28705;45.642;13.758;2022-07-22T14:41:10;30.40;48.80
15609;DHT22;28705;45.642;13.758;2022-07-22T14:43:37;30.40;48.80
15609;DHT22;28705;45.642;13.758;2022-07-22T14:46:05;30.40;48.80
15609;DHT22;28705;45.642;13.758;2022-07-22T14:48:35;30.40;48.70
15609;DHT22;28705;45.642;13.758;2022-07-22T14:51:02;30.40;48.70
15609;DHT22;28705;45.642;13.758;2022-07-22T14:53:31;30.50;48.70
15609;DHT22;28705;45.642;13.758;2022-07-22T14:55:58;30.40;48.60
15609;DHT22;28705;45.642;13.758;2022-07-22T14:58:25;30.40;48.60
15609;DHT22;28705;45.642;13.758;2022-07-22T15:00:52;30.40;48.50
15609;DHT22;28705;45.642;13.758;2022-07-22T15:03:19;30.40;48.50
15609;DHT22;28705;45.642;13.758;2022-07-22T15:05:46;30.40;48.50
15609;DHT22;28705;45.642;13.758;2022-07-22T15:08:13;30.40;48.50
15609;DHT22;28705;45.642;13.758;2022-07-22T15:10:41;30.40;48.50
15609;DHT22;28705;45.642;13.758;2022-07-22T15:13:08;30.40;48.40
15609;DHT22;28705;45.642;13.758;2022-07-22T15:15:35;30.40;48.40
15609;DHT22;28705;45.642;13.758;2022-07-22T15:18:03;30.40;48.40
15609;DHT22;28705;45.642;13.758;2022-07-22T15:20:30;30.40;48.30
15609;DHT22;28705;45.642;13.758;2022-07-22T15:22:57;30.40;48.30